createdAt,value
2019-04-21T00:00:39.721Z,0
2019-04-21T00:03:50.162Z,0
2019-04-21T00:07:26.487Z,0
2019-04-21T00:10:30.129Z,0
2019-04-21T00:13:10.559Z,0
2019-04-21T00:15:48.833Z,0
2019-04-21T00:18:47.928Z,0
2019-04-21T00:21:50.184Z,0
2019-04-21T00:25:04.114Z,0
2019-04-21T00:31:18.200Z,0
2019-04-21T00:33:42.768Z,0
2019-04-21T00:36:50.218Z,0
2019-04-21T00:40:28.991Z,0
2019-04-21T00:43:13.703Z,0
2019-04-21T00:45:57.581Z,0
2019-04-21T00:49:12.853Z,0
2019-04-21T00:52:25.137Z,0
2019-04-21T00:55:49.997Z,0
2019-04-21T00:58:28.424Z,0
2019-04-21T01:01:19.776Z,0
2019-04-21T01:04:36.839Z,0
2019-04-21T01:07:20.720Z,0
2019-04-21T01:10:09.153Z,0
2019-04-21T01:16:06.830Z,0
2019-04-21T01:21:28.205Z,0
2019-04-21T01:24:41.755Z,0
2019-04-21T01:28:15.108Z,0
2019-04-21T01:31:09.387Z,0
2019-04-21T01:34:33.185Z,0
2019-04-21T01:37:21.186Z,0
2019-04-21T01:40:36.170Z,0
2019-04-21T01:43:07.796Z,0
2019-04-21T01:46:22.521Z,0
2019-04-21T01:49:10.489Z,0
2019-04-21T01:52:17.878Z,0
2019-04-21T01:55:33.725Z,0
2019-04-21T01:58:14.317Z,0
2019-04-21T02:01:15.987Z,0
2019-04-21T02:04:29.430Z,0
2019-04-21T02:10:17.665Z,0
2019-04-21T02:13:25.504Z,0
2019-04-21T02:16:03.780Z,0
2019-04-21T02:19:18.280Z,0
2019-04-21T02:22:04.599Z,0
2019-04-21T02:25:32.308Z,0
2019-04-21T02:28:30.897Z,0
2019-04-21T02:31:40.357Z,0
2019-04-21T02:34:06.488Z,0
2019-04-21T02:38:23.673Z,0
2019-04-21T02:43:11.999Z,0
2019-04-21T02:55:44.231Z,0
2019-04-21T03:02:03.733Z,0
2019-04-21T03:07:56.921Z,0
2019-04-21T03:13:29.938Z,0
2019-04-21T03:16:40.139Z,0
2019-04-21T03:19:55.700Z,0
2019-04-21T03:25:25.258Z,0
2019-04-21T03:35:15.295Z,0
2019-04-21T03:46:15.982Z,0
2019-04-21T03:49:04.697Z,0
2019-04-21T03:52:47.821Z,0
2019-04-21T03:55:48.743Z,0
2019-04-21T04:02:01.230Z,0
2019-04-21T04:10:08.242Z,0
2019-04-21T04:13:57.928Z,1
2019-04-21T04:16:59.411Z,1
2019-04-21T04:19:30.142Z,0
2019-04-21T04:25:09.402Z,3
2019-04-21T04:31:45.045Z,5
2019-04-21T04:38:03.629Z,0
2019-04-21T04:43:18.633Z,0
2019-04-21T04:46:47.546Z,2
2019-04-21T04:49:49.638Z,4
2019-04-21T04:52:56.912Z,4
2019-04-21T04:59:19.634Z,0
2019-04-21T05:02:08.573Z,0
2019-04-21T05:05:07.594Z,3
2019-04-21T05:08:16.576Z,13
2019-04-21T05:11:01.352Z,29
2019-04-21T05:13:09.951Z,40
2019-04-21T05:16:58.861Z,75
2019-04-21T05:22:22.165Z,94
2019-04-21T05:25:19.486Z,99
2019-04-21T05:28:00.128Z,128
2019-04-21T05:33:22.312Z,179
2019-04-21T05:34:27.417Z,179
2019-04-21T05:37:24.716Z,194
2019-04-21T05:40:24.843Z,214
2019-04-21T05:42:49.617Z,229
2019-04-21T05:46:01.127Z,267
2019-04-21T05:49:21.714Z,267
2019-04-21T05:58:34.627Z,246
2019-04-21T06:01:41.166Z,226
2019-04-21T06:05:01.888Z,234
2019-04-21T06:07:39.460Z,384
2019-04-21T06:10:31.564Z,204
2019-04-21T06:13:26.855Z,183
2019-04-21T06:16:30.330Z,413
2019-04-21T06:19:41.359Z,351
2019-04-21T06:21:51.321Z,413
2019-04-21T06:28:28.423Z,194
2019-04-21T06:34:53.123Z,42
2019-04-21T06:40:01.835Z,77
2019-04-21T06:46:36.154Z,185
2019-04-21T06:49:19.441Z,0
2019-04-21T06:51:49.800Z,0
2019-04-21T06:55:15.570Z,0
2019-04-21T06:58:27.848Z,93
2019-04-21T07:01:24.168Z,415
2019-04-21T07:07:27.858Z,247
2019-04-21T07:10:31.824Z,246
2019-04-21T07:13:29.148Z,246
2019-04-21T07:16:28.062Z,244
2019-04-21T07:22:31.266Z,280
2019-04-21T07:25:26.476Z,280
2019-04-21T07:28:31.540Z,292
2019-04-21T07:31:40.175Z,319
2019-04-21T07:37:29.932Z,326
2019-04-21T07:40:09.484Z,322
2019-04-21T07:43:16.669Z,344
2019-04-21T07:46:09.044Z,350
2019-04-21T07:50:38.494Z,423
2019-04-21T07:54:35.756Z,425
2019-04-21T07:58:05.837Z,421
2019-04-21T08:01:35.681Z,433
2019-04-21T08:04:37.639Z,466
2019-04-21T08:10:15.694Z,490
2019-04-21T08:13:25.303Z,516
2019-04-21T08:16:24.107Z,574
2019-04-21T08:19:05.577Z,478
2019-04-21T08:22:07.771Z,469
2019-04-21T08:25:14.920Z,432
2019-04-21T08:28:24.070Z,397
2019-04-21T08:34:35.832Z,335
2019-04-21T08:37:26.084Z,398
2019-04-21T08:40:31.539Z,267
2019-04-21T08:43:30.789Z,229
2019-04-21T08:46:18.945Z,226
2019-04-21T08:49:33.662Z,330
2019-04-21T08:55:39.682Z,305
2019-04-21T08:58:08.049Z,403
2019-04-21T09:01:38.359Z,466
2019-04-21T09:04:23.383Z,458
2019-04-21T09:06:58.672Z,393
2019-04-21T09:10:22.015Z,290
2019-04-21T09:12:51.776Z,379
2019-04-21T09:16:09.887Z,333
2019-04-21T09:19:11.434Z,67
2019-04-21T09:22:18.246Z,271
2019-04-21T09:25:26.897Z,284
2019-04-21T09:28:18.464Z,422
2019-04-21T09:30:41.622Z,359
2019-04-21T09:33:35.744Z,287
2019-04-21T09:36:43.143Z,303
2019-04-21T09:39:40.981Z,245
2019-04-21T09:42:38.753Z,238
2019-04-21T09:45:32.860Z,282
2019-04-21T09:48:46.703Z,401
2019-04-21T09:51:30.547Z,384
2019-04-21T09:54:52.055Z,380
2019-04-21T09:57:55.710Z,573
2019-04-21T10:00:46.404Z,459
2019-04-21T10:03:41.379Z,419
2019-04-21T10:06:33.019Z,395
2019-04-21T10:09:33.666Z,401
2019-04-21T10:12:30.665Z,378
2019-04-21T10:15:30.248Z,240
2019-04-21T10:18:31.697Z,436
2019-04-21T10:21:29.472Z,399
2019-04-21T10:24:30.575Z,401
2019-04-21T10:27:31.523Z,359
2019-04-21T10:30:30.758Z,609
2019-04-21T10:33:30.398Z,627
2019-04-21T10:36:31.029Z,546
2019-04-21T10:39:29.820Z,0
2019-04-21T10:42:31.246Z,738
2019-04-21T10:45:30.958Z,189
2019-04-21T10:48:34.151Z,183
2019-04-21T10:51:30.980Z,180
2019-04-21T10:54:47.883Z,169
2019-04-21T10:57:32.988Z,198
2019-04-21T11:00:32.412Z,657
2019-04-21T11:03:36.982Z,0
2019-04-21T11:06:30.954Z,173
2019-04-21T11:09:29.858Z,383
2019-04-21T11:12:29.103Z,157
2019-04-21T11:15:29.443Z,177
2019-04-21T11:18:30.097Z,0
2019-04-21T11:21:31.119Z,201
2019-04-21T11:24:31.522Z,471
2019-04-21T11:27:31.017Z,154
2019-04-21T11:30:29.813Z,163
2019-04-21T11:33:29.207Z,149
2019-04-21T11:36:31.376Z,148
2019-04-21T11:39:52.008Z,162
2019-04-21T11:42:35.597Z,165
2019-04-21T11:45:32.870Z,153
2019-04-21T11:48:32.439Z,150
2019-04-21T11:51:31.033Z,138
2019-04-21T11:54:30.995Z,148
2019-04-21T11:57:44.618Z,147
2019-04-21T12:00:29.488Z,134
2019-04-21T12:03:31.677Z,132
2019-04-21T12:06:35.098Z,131
2019-04-21T12:09:30.117Z,128
2019-04-21T12:12:30.284Z,127
2019-04-21T12:15:31.293Z,127
2019-04-21T12:18:30.136Z,125
2019-04-21T12:21:39.031Z,137
2019-04-21T12:24:31.239Z,125
2019-04-21T12:27:29.952Z,135
2019-04-21T12:30:29.415Z,121
2019-04-21T12:34:03.657Z,132
2019-04-21T12:36:29.607Z,131
2019-04-21T12:39:30.512Z,119
2019-04-21T12:42:30.284Z,128
2019-04-21T12:45:31.612Z,115
2019-04-21T12:48:29.626Z,126
2019-04-21T12:51:30.171Z,124
2019-04-21T12:54:29.866Z,111
2019-04-21T12:57:31.355Z,110
2019-04-21T13:00:28.999Z,110
2019-04-21T13:03:30.544Z,110
2019-04-21T13:06:29.709Z,120
2019-04-21T13:09:33.944Z,107
2019-04-21T13:12:28.975Z,106
2019-04-21T13:15:29.325Z,105
2019-04-21T13:18:29.692Z,115
2019-04-21T13:21:29.934Z,102
2019-04-21T13:24:29.591Z,102
2019-04-21T13:27:28.944Z,112
2019-04-21T13:30:30.475Z,100
2019-04-21T13:33:29.248Z,110
2019-04-21T13:36:29.658Z,98
2019-04-21T13:40:40.272Z,108
2019-04-21T13:42:48.355Z,96
2019-04-21T13:45:30.021Z,106
2019-04-21T13:48:30.690Z,93
2019-04-21T13:51:29.211Z,104
2019-04-21T13:54:29.673Z,93
2019-04-21T13:57:30.366Z,91
2019-04-21T14:00:29.651Z,91
2019-04-21T14:03:31.325Z,101
2019-04-21T14:06:30.150Z,89
2019-04-21T14:09:37.952Z,88
2019-04-21T14:12:31.617Z,98
2019-04-21T14:15:28.537Z,97
2019-04-21T14:18:29.004Z,84
2019-04-21T14:21:29.416Z,83
2019-04-21T14:24:28.821Z,80
2019-04-21T14:27:30.116Z,80
2019-04-21T14:30:30.570Z,90
2019-04-21T14:33:29.873Z,89
2019-04-21T14:36:30.715Z,76
2019-04-21T14:39:30.386Z,86
2019-04-21T14:42:29.844Z,73
2019-04-21T14:45:54.822Z,71
2019-04-21T14:50:42.134Z,80
2019-04-21T14:51:52.785Z,80
2019-04-21T14:54:46.905Z,79
2019-04-21T14:57:29.511Z,77
2019-04-21T15:01:01.850Z,65
2019-04-21T15:03:29.974Z,74
2019-04-21T15:06:29.547Z,73
2019-04-21T15:09:29.356Z,71
2019-04-21T15:12:29.902Z,70
2019-04-21T15:15:29.958Z,68
2019-04-21T15:18:30.634Z,56
2019-04-21T15:21:29.114Z,54
2019-04-21T15:24:30.185Z,64
2019-04-21T15:27:30.715Z,51
2019-04-21T15:30:29.815Z,49
2019-04-21T15:33:30.365Z,49
2019-04-21T15:36:32.192Z,47
2019-04-21T15:39:29.855Z,56
2019-04-21T15:42:30.666Z,55
2019-04-21T15:45:30.627Z,42
2019-04-21T15:48:30.553Z,41
2019-04-21T15:51:29.595Z,40
2019-04-21T15:54:29.889Z,50
2019-04-21T15:57:44.616Z,38
2019-04-21T16:00:38.658Z,37
2019-04-21T16:03:30.967Z,47
2019-04-21T16:06:31.935Z,46
2019-04-21T16:09:37.344Z,45
2019-04-21T16:12:29.689Z,32
2019-04-21T16:15:30.354Z,31
2019-04-21T16:18:30.086Z,30
2019-04-21T16:21:29.509Z,29
2019-04-21T16:24:30.876Z,39
2019-04-21T16:27:29.582Z,27
2019-04-21T16:30:28.972Z,37
2019-04-21T16:33:29.395Z,25
2019-04-21T16:36:31.890Z,35
2019-04-21T16:39:29.455Z,34
2019-04-21T16:42:30.043Z,22
2019-04-21T16:45:30.746Z,22
2019-04-21T16:48:35.749Z,21
2019-04-21T16:51:28.622Z,31
2019-04-21T16:54:37.920Z,20
2019-04-21T16:57:35.651Z,17
2019-04-21T17:01:00.703Z,18
2019-04-21T17:03:30.668Z,28
2019-04-21T17:06:31.173Z,27
2019-04-21T17:09:30.611Z,27
2019-04-21T17:12:32.969Z,14
2019-04-21T17:16:31.933Z,14
2019-04-21T17:19:02.886Z,24
2019-04-21T17:21:31.929Z,23
2019-04-21T17:24:30.605Z,11
2019-04-21T17:27:31.189Z,10
2019-04-21T17:30:30.606Z,20
2019-04-21T17:33:37.097Z,19
2019-04-21T17:36:30.070Z,19
2019-04-21T17:39:31.049Z,18
2019-04-21T17:42:56.132Z,17
2019-04-21T17:45:29.011Z,16
2019-04-21T17:48:32.391Z,15
2019-04-21T17:52:16.372Z,2
2019-04-21T17:54:50.624Z,1
2019-04-21T17:58:21.719Z,12
2019-04-21T18:01:49.962Z,0
2019-04-21T18:04:34.719Z,0
2019-04-21T18:07:27.460Z,0
2019-04-21T18:10:22.233Z,0
2019-04-21T18:13:01.430Z,7
2019-04-21T18:16:02.895Z,6
2019-04-21T18:18:30.609Z,0
2019-04-21T18:21:40.267Z,4
2019-04-21T18:24:47.915Z,0
2019-04-21T18:27:29.833Z,2
2019-04-21T18:30:48.817Z,2
2019-04-21T18:33:45.446Z,0
2019-04-21T18:36:50.238Z,0
2019-04-21T18:40:02.691Z,0
2019-04-21T18:43:35.989Z,0
2019-04-21T18:46:35.696Z,0
2019-04-21T18:49:24.961Z,0
2019-04-21T18:52:19.345Z,0
2019-04-21T18:55:16.264Z,0
2019-04-21T18:57:45.690Z,0
2019-04-21T19:00:42.167Z,0
2019-04-21T19:03:43.001Z,0
2019-04-21T19:06:51.443Z,0
2019-04-21T19:10:40.641Z,0
2019-04-21T19:14:29.738Z,0
2019-04-21T19:16:50.970Z,0
2019-04-21T19:20:20.925Z,0
2019-04-21T19:22:10.466Z,0
2019-04-21T19:25:13.076Z,0
2019-04-21T19:28:16.443Z,0
2019-04-21T19:31:06.550Z,0
2019-04-21T19:34:01.007Z,0
2019-04-21T19:36:32.680Z,0
2019-04-21T19:40:07.888Z,0
2019-04-21T19:42:57.946Z,0
2019-04-21T19:46:09.727Z,0
2019-04-21T19:49:21.097Z,0
2019-04-21T19:52:03.028Z,0
2019-04-21T19:54:46.474Z,0
2019-04-21T19:57:31.198Z,0
2019-04-21T20:00:30.762Z,0
2019-04-21T20:03:30.605Z,0
2019-04-21T20:07:10.317Z,0
2019-04-21T20:13:25.948Z,0
2019-04-21T20:15:59.708Z,0
2019-04-21T20:18:45.686Z,0
2019-04-21T20:21:31.047Z,0
2019-04-21T20:24:39.567Z,0
2019-04-21T20:27:55.357Z,0
2019-04-21T20:31:14.877Z,0
2019-04-21T20:34:40.019Z,0
2019-04-21T20:37:26.790Z,0
2019-04-21T20:39:45.851Z,0
2019-04-21T20:43:11.333Z,0
2019-04-21T20:46:07.923Z,0
2019-04-21T20:49:09.769Z,0
2019-04-21T20:52:12.364Z,0
2019-04-21T20:58:04.255Z,0
2019-04-21T21:01:35.875Z,0
2019-04-21T21:04:12.400Z,0
2019-04-21T21:07:15.793Z,0
2019-04-21T21:10:14.092Z,0
2019-04-21T21:13:26.566Z,0
2019-04-21T21:16:13.505Z,0
2019-04-21T21:19:35.094Z,0
2019-04-21T21:21:46.969Z,0
2019-04-21T21:25:32.194Z,0
2019-04-21T21:28:04.344Z,0
2019-04-21T21:31:11.529Z,0
2019-04-21T21:34:03.507Z,0
2019-04-21T21:37:26.814Z,0
2019-04-21T21:40:26.870Z,0
2019-04-21T21:42:43.956Z,0
2019-04-21T21:45:42.532Z,0
2019-04-21T21:49:03.124Z,0
2019-04-21T21:52:02.680Z,0
2019-04-21T21:54:29.718Z,0
2019-04-21T21:57:34.149Z,0
2019-04-21T22:00:36.966Z,0
2019-04-21T22:03:45.154Z,0
2019-04-21T22:06:45.490Z,0
2019-04-21T22:09:30.381Z,0
2019-04-21T22:12:38.271Z,0
2019-04-21T22:15:37.580Z,0
2019-04-21T22:19:14.349Z,0
2019-04-21T22:22:21.532Z,0
2019-04-21T22:25:04.784Z,0
2019-04-21T22:27:28.220Z,0
2019-04-21T22:30:44.741Z,0
2019-04-21T22:33:39.139Z,0
2019-04-21T22:36:56.102Z,0
2019-04-21T22:40:08.592Z,0
2019-04-21T22:42:51.225Z,0
2019-04-21T22:45:29.330Z,0
2019-04-21T22:48:36.675Z,0
2019-04-21T22:51:44.842Z,0
2019-04-21T22:54:42.808Z,0
2019-04-21T22:57:41.775Z,0
2019-04-21T23:00:37.763Z,0
2019-04-21T23:03:40.150Z,0
2019-04-21T23:06:38.910Z,0
2019-04-21T23:09:28.996Z,0
2019-04-21T23:12:42.565Z,0
2019-04-21T23:15:42.366Z,0
2019-04-21T23:19:05.888Z,0
2019-04-21T23:22:16.187Z,0
2019-04-21T23:25:26.279Z,0
2019-04-21T23:28:08.867Z,0
2019-04-21T23:31:27.233Z,0
2019-04-21T23:33:34.449Z,0
2019-04-21T23:36:36.051Z,0
2019-04-21T23:39:39.617Z,0
2019-04-21T23:42:45.327Z,0
2019-04-21T23:45:41.185Z,0
2019-04-21T23:49:10.834Z,0
2019-04-21T23:51:43.473Z,0
2019-04-21T23:54:29.258Z,0
2019-04-21T23:57:48.106Z,0
